createdAt,value
2023-02-23T00:02:20.976Z,63.23
2023-02-23T00:04:50.024Z,65.57
2023-02-23T00:07:20.542Z,62.10
2023-02-23T00:09:50.929Z,62.77
2023-02-23T00:12:20.820Z,65.93
2023-02-23T00:14:50.133Z,68.60
2023-02-23T00:17:18.687Z,70.80
2023-02-23T00:19:52.218Z,69.37
2023-02-23T00:22:20.641Z,68.90
2023-02-23T00:24:50.552Z,61.67
2023-02-23T00:27:20.982Z,64.17
2023-02-23T00:29:52.613Z,66.70
2023-02-23T00:32:24.388Z,62.00
2023-02-23T00:34:53.526Z,64.67
2023-02-23T00:37:23.308Z,70.53
2023-02-23T00:39:52.297Z,63.23
2023-02-23T00:42:22.547Z,67.80
2023-02-23T00:44:51.192Z,62.40
2023-02-23T00:47:19.935Z,63.27
2023-02-23T00:49:51.105Z,61.53
2023-02-23T00:52:20.771Z,62.53
2023-02-23T00:54:50.093Z,64.90
2023-02-23T00:57:18.511Z,64.87
2023-02-23T00:59:48.764Z,68.37
2023-02-23T01:02:17.314Z,69.83
2023-02-23T01:04:45.787Z,71.47
2023-02-23T01:07:14.138Z,71.67
2023-02-23T01:09:42.698Z,75.67
2023-02-23T01:12:12.600Z,72.10
2023-02-23T01:14:42.585Z,70.67
2023-02-23T01:17:13.793Z,78.50
2023-02-23T01:19:42.214Z,80.90
2023-02-23T01:22:10.643Z,81.30
2023-02-23T01:24:41.098Z,80.40
2023-02-23T01:27:09.516Z,78.10
2023-02-23T01:29:37.958Z,81.67
2023-02-23T01:32:06.855Z,82.70
2023-02-23T01:34:36.761Z,80.53
2023-02-23T01:37:05.199Z,86.37
2023-02-23T01:39:34.372Z,82.87
2023-02-23T01:42:05.426Z,89.50
2023-02-23T01:45:24.757Z,92.77
2023-02-23T01:47:57.097Z,82.30
2023-02-23T01:50:30.618Z,88.67
2023-02-23T01:53:00.161Z,96.80
2023-02-23T01:55:30.068Z,83.33
2023-02-23T01:58:11.769Z,91.27
2023-02-23T02:00:47.553Z,86.27
2023-02-23T02:03:26.600Z,90.13
2023-02-23T02:05:57.552Z,84.67
2023-02-23T02:08:27.009Z,87.53
2023-02-23T02:10:57.693Z,94.03
2023-02-23T02:13:31.044Z,97.60
2023-02-23T02:16:35.132Z,90.33
2023-02-23T02:19:54.339Z,96.17
2023-02-23T02:22:46.386Z,87.10
2023-02-23T02:25:49.697Z,79.10
2023-02-23T02:28:51.162Z,81.93
2023-02-23T02:31:50.764Z,94.47
2023-02-23T02:35:10.612Z,89.13
2023-02-23T02:38:02.080Z,87.70
2023-02-23T02:40:36.950Z,80.40
2023-02-23T02:43:13.080Z,92.97
2023-02-23T02:45:50.199Z,75.93
2023-02-23T02:48:26.778Z,80.80
2023-02-23T02:50:59.256Z,74.03
2023-02-23T02:53:36.668Z,97.93
2023-02-23T02:56:06.530Z,75.87
2023-02-23T02:58:39.756Z,72.63
2023-02-23T03:01:32.281Z,77.60
2023-02-23T03:04:19.432Z,76.83
2023-02-23T03:07:11.262Z,72.80
2023-02-23T03:10:06.011Z,80.27
2023-02-23T03:12:57.214Z,90.10
2023-02-23T03:15:57.529Z,94.33
2023-02-23T03:19:01.022Z,96.73
2023-02-23T03:21:55.348Z,87.97
2023-02-23T03:24:51.408Z,88.40
2023-02-23T03:27:44.491Z,83.30
2023-02-23T03:30:36.314Z,79.50
2023-02-23T03:33:28.505Z,82.97
2023-02-23T03:36:19.910Z,87.47
2023-02-23T03:39:12.108Z,81.90
2023-02-23T03:42:00.133Z,93.50
2023-02-23T03:44:53.125Z,82.27
2023-02-23T03:47:44.576Z,82.50
2023-02-23T03:50:36.375Z,95.87
2023-02-23T03:53:23.357Z,90.37
2023-02-23T03:56:12.829Z,88.23
2023-02-23T03:59:05.858Z,87.50
2023-02-23T04:01:54.539Z,77.63
2023-02-23T04:04:41.872Z,93.73
2023-02-23T04:07:28.304Z,90.57
2023-02-23T04:10:14.044Z,78.23
2023-02-23T04:13:07.608Z,83.43
2023-02-23T04:15:37.765Z,82.10
2023-02-23T04:18:08.406Z,89.70
2023-02-23T04:20:36.796Z,79.80
2023-02-23T04:23:05.180Z,77.07
2023-02-23T04:25:33.827Z,79.87
2023-02-23T04:28:02.318Z,79.23
2023-02-23T04:30:30.805Z,78.77
2023-02-23T04:33:00.674Z,80.50
2023-02-23T04:35:31.506Z,78.37
2023-02-23T04:38:00.302Z,76.10
2023-02-23T04:40:29.249Z,90.20
2023-02-23T04:42:57.983Z,80.20
2023-02-23T04:45:27.284Z,83.23
2023-02-23T04:47:56.248Z,69.80
2023-02-23T04:50:24.781Z,73.17
2023-02-23T04:52:54.474Z,75.83
2023-02-23T04:55:25.995Z,83.03
2023-02-23T04:57:59.062Z,82.20
2023-02-23T05:00:29.477Z,75.27
2023-02-23T05:02:58.172Z,72.53
2023-02-23T05:05:26.787Z,77.27
2023-02-23T05:07:56.519Z,77.63
2023-02-23T05:10:25.138Z,76.37
2023-02-23T05:12:53.542Z,97.20
2023-02-23T05:15:22.502Z,84.53
2023-02-23T05:17:50.994Z,92.47
2023-02-23T05:20:19.576Z,80.83
2023-02-23T05:22:47.886Z,80.07
2023-02-23T05:25:17.793Z,80.17
2023-02-23T05:27:46.580Z,83.27
2023-02-23T05:30:15.552Z,101.33
2023-02-23T05:32:44.130Z,79.47
2023-02-23T05:35:12.852Z,92.00
2023-02-23T05:37:41.204Z,89.20
2023-02-23T05:40:11.295Z,89.20
2023-02-23T05:42:41.037Z,104.40
2023-02-23T05:45:10.143Z,109.50
2023-02-23T05:47:38.991Z,101.43
2023-02-23T05:50:09.096Z,99.97
2023-02-23T05:52:41.670Z,92.90
2023-02-23T05:55:12.708Z,87.27
2023-02-23T05:57:42.824Z,107.57
2023-02-23T06:00:14.482Z,108.63
2023-02-23T06:02:42.919Z,103.90
2023-02-23T06:05:11.900Z,105.80
2023-02-23T06:07:41.594Z,107.83
2023-02-23T06:10:11.812Z,95.63
2023-02-23T06:12:43.209Z,107.93
2023-02-23T06:15:12.865Z,106.03
2023-02-23T06:17:41.260Z,111.57
2023-02-23T06:20:11.596Z,88.60
2023-02-23T06:22:40.178Z,103.93
2023-02-23T06:25:12.848Z,89.30
2023-02-23T06:27:44.504Z,85.10
2023-02-23T06:30:14.004Z,110.07
2023-02-23T06:32:42.434Z,99.80
2023-02-23T06:35:15.158Z,100.77
2023-02-23T06:37:43.995Z,101.23
2023-02-23T06:40:13.566Z,90.67
2023-02-23T06:42:43.339Z,95.77
2023-02-23T06:45:13.293Z,89.00
2023-02-23T06:47:42.947Z,91.80
2023-02-23T06:50:13.199Z,91.60
2023-02-23T06:52:41.772Z,90.87
2023-02-23T06:55:11.071Z,94.57
2023-02-23T06:57:41.507Z,99.40
2023-02-23T07:00:15.247Z,93.87
2023-02-23T07:02:44.820Z,94.37
2023-02-23T07:05:13.324Z,87.97
2023-02-23T07:07:41.737Z,86.73
2023-02-23T07:10:12.083Z,96.00
2023-02-23T07:12:42.394Z,85.27
2023-02-23T07:15:18.502Z,86.63
2023-02-23T07:17:48.887Z,88.77
2023-02-23T07:20:17.734Z,93.07
2023-02-23T07:22:47.967Z,81.33
2023-02-23T07:25:16.533Z,82.87
2023-02-23T07:27:45.354Z,91.13
2023-02-23T07:30:18.228Z,83.97
2023-02-23T07:32:46.854Z,82.80
2023-02-23T07:35:17.029Z,93.90
2023-02-23T07:37:45.392Z,77.33
2023-02-23T07:40:14.715Z,81.67
2023-02-23T07:42:43.170Z,78.60
2023-02-23T07:45:12.346Z,86.30
2023-02-23T07:47:42.140Z,84.03
2023-02-23T07:50:12.737Z,80.60
2023-02-23T07:52:43.551Z,82.87
2023-02-23T07:55:13.057Z,82.10
2023-02-23T07:57:41.502Z,84.73
2023-02-23T08:00:12.069Z,77.43
2023-02-23T08:02:44.543Z,77.60
2023-02-23T08:05:12.996Z,76.47
2023-02-23T08:07:41.353Z,76.87
2023-02-23T08:10:11.705Z,74.67
2023-02-23T08:12:43.501Z,77.33
2023-02-23T08:15:13.013Z,79.93
2023-02-23T08:17:43.513Z,71.77
2023-02-23T08:20:12.988Z,70.73
2023-02-23T08:22:49.448Z,75.90
2023-02-23T08:25:19.123Z,71.03
2023-02-23T08:27:53.199Z,73.20
2023-02-23T08:30:23.368Z,66.13
2023-02-23T08:32:53.431Z,70.10
2023-02-23T08:35:23.183Z,63.30
2023-02-23T08:37:51.701Z,65.97
2023-02-23T08:40:20.996Z,64.70
2023-02-23T08:42:52.793Z,61.67
2023-02-23T08:45:21.576Z,63.60
2023-02-23T08:47:55.493Z,58.17
2023-02-23T08:50:27.035Z,58.90
2023-02-23T08:52:55.749Z,50.67
2023-02-23T08:55:24.136Z,52.47
2023-02-23T08:57:52.674Z,47.47
2023-02-23T09:00:23.149Z,50.20
2023-02-23T09:02:51.527Z,47.80
2023-02-23T09:05:21.480Z,44.63
2023-02-23T09:07:50.901Z,46.77
2023-02-23T09:10:24.841Z,43.00
2023-02-23T09:12:53.224Z,43.37
2023-02-23T09:15:22.071Z,44.50
2023-02-23T09:17:50.765Z,42.57
2023-02-23T09:20:26.080Z,43.60
2023-02-23T09:22:56.572Z,43.47
2023-02-23T09:25:25.207Z,39.77
2023-02-23T09:27:56.339Z,42.80
2023-02-23T09:30:24.855Z,40.37
2023-02-23T09:32:53.998Z,39.10
2023-02-23T09:35:25.697Z,37.30
2023-02-23T09:37:57.001Z,36.90
2023-02-23T09:40:28.181Z,36.30
2023-02-23T09:43:02.979Z,37.90
2023-02-23T09:45:40.259Z,32.40
2023-02-23T09:48:17.548Z,32.53
2023-02-23T09:50:51.552Z,32.40
2023-02-23T09:53:40.625Z,33.70
2023-02-23T09:56:13.751Z,33.43
2023-02-23T09:58:42.485Z,31.70
2023-02-23T10:01:54.371Z,37.13
2023-02-23T10:04:25.251Z,35.53
2023-02-23T10:07:01.592Z,31.10
2023-02-23T10:09:45.465Z,31.53
2023-02-23T10:12:21.118Z,30.37
2023-02-23T10:15:14.455Z,29.17
2023-02-23T10:17:56.834Z,27.10
2023-02-23T10:20:32.569Z,27.80
2023-02-23T10:23:08.040Z,28.40
2023-02-23T10:25:40.306Z,26.70
2023-02-23T10:28:14.814Z,25.67
2023-02-23T10:30:43.341Z,27.77
2023-02-23T10:33:17.152Z,27.17
2023-02-23T10:35:46.607Z,26.80
2023-02-23T10:38:18.980Z,26.80
2023-02-23T10:40:52.429Z,25.60
2023-02-23T10:43:20.948Z,24.87
2023-02-23T10:45:52.634Z,23.80
2023-02-23T10:48:24.553Z,23.60
2023-02-23T10:51:00.305Z,22.33
2023-02-23T10:53:35.999Z,23.87
2023-02-23T10:56:11.371Z,21.60
2023-02-23T10:58:48.772Z,23.00
2023-02-23T11:01:30.500Z,23.83
2023-02-23T11:04:05.925Z,22.90
2023-02-23T11:06:39.672Z,20.77
2023-02-23T11:09:41.338Z,20.60
2023-02-23T11:12:22.931Z,19.93
2023-02-23T11:14:53.091Z,20.93
2023-02-23T11:17:29.785Z,18.70
2023-02-23T11:20:04.569Z,19.00
2023-02-23T11:22:36.700Z,17.73
2023-02-23T11:25:26.263Z,14.57
2023-02-23T11:27:57.174Z,13.90
2023-02-23T11:30:32.512Z,15.83
2023-02-23T11:33:09.591Z,13.67
2023-02-23T11:35:38.887Z,13.47
2023-02-23T11:44:27.229Z,13.13
2023-02-23T11:46:55.727Z,12.63
2023-02-23T11:49:30.036Z,13.00
2023-02-23T11:51:59.509Z,10.50
2023-02-23T11:54:33.283Z,10.70
2023-02-23T11:57:02.817Z,12.20
2023-02-23T11:59:35.783Z,10.43
2023-02-23T12:02:22.480Z,11.60
2023-02-23T12:04:52.789Z,11.73
2023-02-23T12:07:41.932Z,12.40
2023-02-23T12:10:21.256Z,11.67
2023-02-23T12:13:01.721Z,11.87
2023-02-23T12:15:39.985Z,12.43
2023-02-23T12:18:19.165Z,11.60
2023-02-23T12:20:50.767Z,11.00
2023-02-23T12:23:23.128Z,12.40
2023-02-23T12:25:56.113Z,10.90
2023-02-23T12:28:30.492Z,11.00
2023-02-23T12:31:03.158Z,11.07
2023-02-23T12:47:33.901Z,19.10
2023-02-23T12:50:13.362Z,14.33
2023-02-23T12:52:50.251Z,12.57
2023-02-23T12:55:30.080Z,9.23
2023-02-23T12:58:07.853Z,8.50
2023-02-23T13:00:47.417Z,9.00
2023-02-23T13:03:55.167Z,8.30
2023-02-23T13:06:35.406Z,8.50
2023-02-23T13:09:31.616Z,9.50
2023-02-23T13:12:24.159Z,10.63
2023-02-23T13:15:02.643Z,11.37
2023-02-23T13:17:41.844Z,11.17
2023-02-23T13:20:22.614Z,10.67
2023-02-23T13:22:57.673Z,10.20
2023-02-23T13:25:38.669Z,11.20
2023-02-23T13:28:14.993Z,11.00
2023-02-23T13:30:47.923Z,11.73
2023-02-23T13:33:34.973Z,11.00
2023-02-23T13:36:09.913Z,11.40
2023-02-23T13:38:47.837Z,12.10
2023-02-23T13:41:34.338Z,12.57
2023-02-23T13:44:11.583Z,13.30
2023-02-23T13:46:49.981Z,12.93
2023-02-23T13:49:36.537Z,13.13
2023-02-23T13:52:17.898Z,12.27
2023-02-23T13:54:57.103Z,13.40
2023-02-23T13:57:27.344Z,11.67
2023-02-23T13:59:56.726Z,11.07
2023-02-23T14:02:36.564Z,10.20
2023-02-23T14:05:15.131Z,10.73
2023-02-23T14:07:49.650Z,10.80
2023-02-23T14:10:23.409Z,11.90
2023-02-23T14:13:31.315Z,12.73
2023-02-23T14:16:19.003Z,12.37
2023-02-23T14:19:22.522Z,12.00
2023-02-23T14:21:58.389Z,12.63
2023-02-23T14:24:29.879Z,12.57
2023-02-23T14:27:40.231Z,14.70
2023-02-23T14:30:25.371Z,14.80
2023-02-23T14:32:54.817Z,14.93
2023-02-23T14:35:49.098Z,17.07
2023-02-23T14:38:46.808Z,17.27
2023-02-23T14:41:23.969Z,15.80
2023-02-23T14:43:55.820Z,17.63
2023-02-23T14:46:26.348Z,16.60
2023-02-23T14:49:02.094Z,15.50
2023-02-23T14:51:45.027Z,17.70
2023-02-23T14:54:23.650Z,14.90
2023-02-23T14:56:59.604Z,15.10
2023-02-23T14:59:29.786Z,14.00
2023-02-23T15:02:02.593Z,14.90
2023-02-23T15:04:31.932Z,12.90
2023-02-23T15:07:02.980Z,14.47
2023-02-23T15:09:36.881Z,12.50
2023-02-23T15:12:17.789Z,13.10
2023-02-23T15:14:48.970Z,13.37
2023-02-23T15:17:22.111Z,13.97
2023-02-23T15:20:06.036Z,11.40
2023-02-23T15:22:42.742Z,13.07
2023-02-23T15:25:20.654Z,12.80
2023-02-23T15:27:51.937Z,14.63
2023-02-23T15:30:30.847Z,14.40
2023-02-23T15:33:04.583Z,13.70
2023-02-23T15:35:44.501Z,12.77
2023-02-23T15:38:41.701Z,11.70
2023-02-23T15:41:26.487Z,12.23
2023-02-23T15:44:04.251Z,14.30
2023-02-23T15:46:34.285Z,12.50
2023-02-23T15:49:05.383Z,13.10
2023-02-23T15:51:39.288Z,14.60
2023-02-23T15:54:19.800Z,14.17
2023-02-23T15:56:51.187Z,16.23
2023-02-23T15:59:28.972Z,17.10
2023-02-23T16:02:00.181Z,17.50
2023-02-23T16:04:42.511Z,18.07
2023-02-23T16:07:20.417Z,17.00
2023-02-23T16:09:53.794Z,18.73
2023-02-23T16:12:29.192Z,18.97
2023-02-23T16:15:03.585Z,18.90
2023-02-23T16:17:44.087Z,20.87
2023-02-23T16:20:22.195Z,20.80
2023-02-23T16:22:53.732Z,21.13
2023-02-23T16:25:25.912Z,21.63
2023-02-23T16:28:02.862Z,21.37
2023-02-23T16:30:43.279Z,20.60
2023-02-23T16:33:19.917Z,21.33
2023-02-23T16:35:51.566Z,20.13
2023-02-23T16:38:26.208Z,20.10
2023-02-23T16:40:55.321Z,21.10
2023-02-23T16:43:24.019Z,20.90
2023-02-23T16:45:54.198Z,13.87
2023-02-23T16:48:24.216Z,8.47
2023-02-23T16:50:52.672Z,6.73
2023-02-23T16:53:22.918Z,5.77
2023-02-23T16:55:54.810Z,6.60
2023-02-23T16:58:27.125Z,5.73
2023-02-23T17:00:57.368Z,4.90
2023-02-23T17:03:28.025Z,8.17
2023-02-23T17:05:56.962Z,5.63
2023-02-23T17:08:26.303Z,6.17
2023-02-23T17:10:57.366Z,6.17
2023-02-23T17:13:29.078Z,6.40
2023-02-23T17:15:58.895Z,5.47
2023-02-23T17:18:30.000Z,6.20
2023-02-23T17:21:02.666Z,5.50
2023-02-23T17:23:42.501Z,5.07
2023-02-23T17:26:13.043Z,5.87
2023-02-23T17:28:42.395Z,5.90
2023-02-23T17:31:13.163Z,5.70
2023-02-23T17:33:42.516Z,4.50
2023-02-23T17:36:14.817Z,4.73
2023-02-23T17:38:45.132Z,5.00
2023-02-23T17:41:18.474Z,4.47
2023-02-23T17:43:47.756Z,5.20
2023-02-23T17:46:17.572Z,5.27
2023-02-23T17:48:47.755Z,5.27
2023-02-23T17:51:19.248Z,5.07
2023-02-23T17:53:48.654Z,5.90
2023-02-23T17:56:18.045Z,6.40
2023-02-23T17:58:46.796Z,7.27
2023-02-23T18:01:17.920Z,8.10
2023-02-23T18:03:47.887Z,7.53
2023-02-23T18:06:16.930Z,7.50
2023-02-23T18:08:45.538Z,7.40
2023-02-23T18:11:18.658Z,6.90
2023-02-23T18:13:48.368Z,5.83
2023-02-23T18:16:19.733Z,6.63
2023-02-23T18:18:50.329Z,8.73
2023-02-23T18:21:22.111Z,6.43
2023-02-23T18:23:52.026Z,6.10
2023-02-23T18:26:23.602Z,5.60
2023-02-23T18:28:52.595Z,5.90
2023-02-23T18:31:25.580Z,6.53
2023-02-23T18:33:54.840Z,5.40
2023-02-23T18:36:26.047Z,6.00
2023-02-23T18:38:55.692Z,5.47
2023-02-23T18:41:24.694Z,6.37
2023-02-23T18:43:53.273Z,6.10
2023-02-23T18:46:23.215Z,6.67
2023-02-23T18:48:52.748Z,6.20
2023-02-23T18:51:22.612Z,9.47
2023-02-23T18:53:51.768Z,7.53
2023-02-23T18:56:23.500Z,5.33
2023-02-23T18:58:52.802Z,5.87
2023-02-23T19:01:25.136Z,6.07
2023-02-23T19:03:55.913Z,5.50
2023-02-23T19:06:25.249Z,4.93
2023-02-23T19:08:56.521Z,5.27
2023-02-23T19:11:28.342Z,4.73
2023-02-23T19:13:59.288Z,5.03
2023-02-23T19:16:31.276Z,7.37
2023-02-23T19:19:02.941Z,5.10
2023-02-23T19:21:31.835Z,6.97
2023-02-23T19:24:02.454Z,6.70
2023-02-23T19:26:33.825Z,6.27
2023-02-23T19:29:02.595Z,5.70
2023-02-23T19:31:32.571Z,5.30
2023-02-23T19:34:03.327Z,5.33
2023-02-23T19:36:33.839Z,5.80
2023-02-23T19:39:10.388Z,7.03
2023-02-23T19:41:41.246Z,6.53
2023-02-23T19:44:10.164Z,4.60
2023-02-23T19:46:42.961Z,4.10
2023-02-23T19:49:11.815Z,5.40
2023-02-23T19:51:44.363Z,6.20
2023-02-23T19:54:13.161Z,4.50
2023-02-23T19:56:41.647Z,6.40
2023-02-23T19:59:10.154Z,5.83
2023-02-23T20:01:40.252Z,7.97
2023-02-23T20:04:09.990Z,6.93
2023-02-23T20:06:44.784Z,4.70
2023-02-23T20:09:14.030Z,5.10
2023-02-23T20:11:43.720Z,4.83
2023-02-23T20:14:12.896Z,5.63
2023-02-23T20:16:43.033Z,4.83
2023-02-23T20:19:11.907Z,6.80
2023-02-23T20:21:42.070Z,6.53
2023-02-23T20:24:12.720Z,5.13
2023-02-23T20:26:41.463Z,5.70
2023-02-23T20:29:17.925Z,5.90
2023-02-23T20:31:51.501Z,5.73
2023-02-23T20:34:24.702Z,6.50
2023-02-23T20:36:54.157Z,6.50
2023-02-23T20:39:22.861Z,7.53
2023-02-23T20:41:53.675Z,5.40
2023-02-23T20:44:24.963Z,7.33
2023-02-23T20:46:55.149Z,8.87
2023-02-23T20:49:24.397Z,6.60
2023-02-23T20:51:53.001Z,7.00
2023-02-23T20:54:22.117Z,7.67
2023-02-23T20:56:58.925Z,6.63
2023-02-23T20:59:30.688Z,6.67
2023-02-23T21:02:04.369Z,5.00
2023-02-23T21:04:35.761Z,5.60
2023-02-23T21:07:07.160Z,5.50
2023-02-23T21:09:35.563Z,7.70
2023-02-23T21:12:04.102Z,5.53
2023-02-23T21:14:34.506Z,5.63
2023-02-23T21:17:05.392Z,6.70
2023-02-23T21:19:34.084Z,8.73
2023-02-23T21:22:02.839Z,6.50
2023-02-23T21:24:33.886Z,6.53
2023-02-23T21:27:05.252Z,6.20
2023-02-23T21:29:33.758Z,7.53
2023-02-23T21:32:02.312Z,7.37
2023-02-23T21:34:32.281Z,8.23
2023-02-23T21:37:00.883Z,7.27
2023-02-23T21:39:29.750Z,7.87
2023-02-23T21:41:58.406Z,10.13
2023-02-23T21:44:26.927Z,10.27
2023-02-23T21:46:55.331Z,12.23
2023-02-23T21:49:23.700Z,10.40
2023-02-23T21:51:55.267Z,11.90
2023-02-23T21:54:23.640Z,13.70
2023-02-23T21:56:52.322Z,14.07
2023-02-23T21:59:20.658Z,14.60
2023-02-23T22:01:49.265Z,9.93
2023-02-23T22:04:17.731Z,7.37
2023-02-23T22:06:46.815Z,6.43
2023-02-23T22:09:16.669Z,6.33
2023-02-23T22:11:47.874Z,6.87
2023-02-23T22:14:18.197Z,7.90
2023-02-23T22:16:49.801Z,8.00
2023-02-23T22:19:19.404Z,9.07
2023-02-23T22:21:51.016Z,8.80
2023-02-23T22:24:20.753Z,6.57
2023-02-23T22:26:54.637Z,6.87
2023-02-23T22:29:24.768Z,5.70
2023-02-23T22:31:53.642Z,5.50
2023-02-23T22:34:22.912Z,5.70
2023-02-23T22:36:51.362Z,5.60
2023-02-23T22:39:21.123Z,6.30
2023-02-23T22:41:50.943Z,5.83
2023-02-23T22:44:22.687Z,5.27
2023-02-23T22:46:52.233Z,4.33
2023-02-23T22:49:21.063Z,5.87
2023-02-23T22:51:51.005Z,5.87
2023-02-23T22:54:24.049Z,5.00
2023-02-23T22:56:52.569Z,4.30
2023-02-23T22:59:20.939Z,5.40
2023-02-23T23:01:50.427Z,4.50
2023-02-23T23:04:21.994Z,5.17
2023-02-23T23:06:52.921Z,5.33
2023-02-23T23:09:22.844Z,4.60
2023-02-23T23:11:51.847Z,5.47
2023-02-23T23:14:20.397Z,4.63
2023-02-23T23:16:50.064Z,5.53
2023-02-23T23:19:24.769Z,4.47
2023-02-23T23:21:56.171Z,5.50
2023-02-23T23:24:26.582Z,5.40
2023-02-23T23:27:00.123Z,5.60
2023-02-23T23:29:30.668Z,6.30
2023-02-23T23:32:00.988Z,7.33
2023-02-23T23:34:33.688Z,8.40
2023-02-23T23:37:02.791Z,7.00
2023-02-23T23:39:32.697Z,6.70
2023-02-23T23:42:02.326Z,5.80
2023-02-23T23:44:31.048Z,4.90
2023-02-23T23:46:59.774Z,5.23
2023-02-23T23:49:28.259Z,5.00
2023-02-23T23:51:57.880Z,5.93
2023-02-23T23:54:29.992Z,5.83
2023-02-23T23:57:01.298Z,5.00
2023-02-23T23:59:29.945Z,4.80
